createdAt,value
2023-04-20T00:01:01.535Z,94778.56
2023-04-20T00:04:03.738Z,94803.75
2023-04-20T00:07:06.461Z,94787.63
2023-04-20T00:10:09.207Z,94794.00
2023-04-20T00:13:11.410Z,94785.97
2023-04-20T00:16:13.453Z,94786.78
2023-04-20T00:19:16.027Z,94784.63
2023-04-20T00:22:18.076Z,94781.34
2023-04-20T00:25:20.778Z,94773.59
2023-04-20T00:28:22.760Z,94782.50
2023-04-20T00:31:24.831Z,94779.03
2023-04-20T00:34:26.920Z,94782.66
2023-04-20T00:37:28.849Z,94777.41
2023-04-20T00:40:30.930Z,94767.03
2023-04-20T00:43:33.109Z,94781.50
2023-04-20T00:46:35.035Z,94776.06
2023-04-20T00:49:37.302Z,94771.94
2023-04-20T00:52:40.884Z,94764.53
2023-04-20T00:55:44.455Z,94777.84
2023-04-20T00:58:46.950Z,94780.44
2023-04-20T01:01:49.221Z,94785.69
2023-04-20T01:04:51.233Z,94767.78
2023-04-20T01:07:53.123Z,94780.09
2023-04-20T01:10:56.210Z,94776.78
2023-04-20T01:13:58.498Z,94770.03
2023-04-20T01:17:00.474Z,94776.94
2023-04-20T01:20:02.464Z,94769.34
2023-04-20T01:23:04.617Z,94773.59
2023-04-20T01:26:10.980Z,94770.84
2023-04-20T01:29:12.910Z,94755.19
2023-04-20T01:32:14.854Z,94765.22
2023-04-20T01:35:16.792Z,94757.97
2023-04-20T01:38:19.974Z,94751.53
2023-04-20T01:41:22.056Z,94755.81
2023-04-20T01:44:23.960Z,94757.25
2023-04-20T01:47:25.976Z,94765.09
2023-04-20T01:50:27.978Z,94752.78
2023-04-20T01:53:29.944Z,94756.81
2023-04-20T01:56:31.802Z,94768.16
2023-04-20T01:59:33.872Z,94773.69
2023-04-20T02:02:36.011Z,94763.13
2023-04-20T02:05:38.058Z,94752.56
2023-04-20T02:08:39.996Z,94775.31
2023-04-20T02:11:41.927Z,94770.06
2023-04-20T02:14:43.965Z,94775.06
2023-04-20T02:17:47.440Z,94768.56
2023-04-20T02:20:49.365Z,94766.72
2023-04-20T02:23:51.216Z,94767.56
2023-04-20T02:26:53.043Z,94773.13
2023-04-20T02:29:54.966Z,94762.06
2023-04-20T02:32:57.052Z,94762.34
2023-04-20T02:35:58.972Z,94763.66
2023-04-20T02:39:00.979Z,94772.25
2023-04-20T02:42:03.136Z,94772.81
2023-04-20T02:45:05.632Z,94773.13
2023-04-20T02:48:07.620Z,94760.63
2023-04-20T02:51:09.773Z,94765.94
2023-04-20T02:54:12.143Z,94758.06
2023-04-20T02:57:14.175Z,94772.22
2023-04-20T03:00:16.379Z,94775.81
2023-04-20T03:03:20.115Z,94774.47
2023-04-20T03:06:22.104Z,94775.31
2023-04-20T03:09:24.662Z,94773.03
2023-04-20T03:12:26.753Z,94776.09
2023-04-20T03:15:28.862Z,94773.28
2023-04-20T03:18:30.799Z,94764.28
2023-04-20T03:21:33.167Z,94765.75
2023-04-20T03:24:35.453Z,94765.75
2023-04-20T03:27:37.269Z,94763.97
2023-04-20T03:30:39.158Z,94755.78
2023-04-20T03:33:41.493Z,94768.38
2023-04-20T03:36:43.615Z,94759.06
2023-04-20T03:39:45.864Z,94763.31
2023-04-20T03:42:47.862Z,94765.59
2023-04-20T03:45:49.809Z,94764.81
2023-04-20T03:48:51.820Z,94770.59
2023-04-20T03:51:53.796Z,94767.56
2023-04-20T03:54:55.933Z,94771.66
2023-04-20T03:57:57.852Z,94761.66
2023-04-20T04:01:07.144Z,94767.44
2023-04-20T04:04:09.625Z,94778.66
2023-04-20T04:07:11.790Z,94763.94
2023-04-20T04:10:13.830Z,94784.28
2023-04-20T04:13:15.912Z,94794.41
2023-04-20T04:16:17.854Z,94775.72
2023-04-20T04:19:19.895Z,94771.38
2023-04-20T04:22:21.907Z,94766.75
2023-04-20T04:25:23.895Z,94767.19
2023-04-20T04:28:25.869Z,94781.09
2023-04-20T04:31:28.687Z,94776.53
2023-04-20T04:34:31.406Z,94776.16
2023-04-20T04:37:33.352Z,94782.34
2023-04-20T04:40:35.961Z,94775.16
2023-04-20T04:43:37.902Z,94786.75
2023-04-20T04:46:39.908Z,94778.06
2023-04-20T04:49:42.693Z,94786.31
2023-04-20T04:52:45.441Z,94784.91
2023-04-20T04:55:47.266Z,94789.22
2023-04-20T04:58:49.303Z,94783.34
2023-04-20T05:01:51.343Z,94787.81
2023-04-20T05:04:54.042Z,94773.44
2023-04-20T05:07:55.989Z,94793.53
2023-04-20T05:10:58.137Z,94791.34
2023-04-20T05:14:02.559Z,94796.69
2023-04-20T05:17:04.864Z,94811.03
2023-04-20T05:20:08.225Z,94811.56
2023-04-20T05:23:10.133Z,94809.25
2023-04-20T05:26:12.184Z,94812.25
2023-04-20T05:29:16.038Z,94801.56
2023-04-20T05:32:18.248Z,94802.63
2023-04-20T05:35:21.348Z,94806.53
2023-04-20T05:38:23.988Z,94807.31
2023-04-20T05:41:28.707Z,94801.44
2023-04-20T05:44:30.883Z,94812.75
2023-04-20T05:47:32.970Z,94797.72
2023-04-20T05:50:34.982Z,94805.53
2023-04-20T05:53:37.173Z,94813.00
2023-04-20T05:56:39.187Z,94811.38
2023-04-20T05:59:41.590Z,94815.03
2023-04-20T06:02:44.241Z,94824.03
2023-04-20T06:05:46.411Z,94818.72
2023-04-20T06:08:48.752Z,94826.22
2023-04-20T06:11:53.122Z,94818.88
2023-04-20T06:14:55.058Z,94806.66
2023-04-20T06:17:57.116Z,94822.84
2023-04-20T06:21:00.220Z,94824.16
2023-04-20T06:24:02.488Z,94811.16
2023-04-20T06:27:04.759Z,94826.81
2023-04-20T06:30:07.610Z,94824.84
2023-04-20T06:33:17.116Z,94812.66
2023-04-20T06:36:19.618Z,94823.66
2023-04-20T06:39:25.164Z,94812.47
2023-04-20T06:42:30.364Z,94821.72
2023-04-20T06:45:35.350Z,94824.59
2023-04-20T06:48:42.388Z,94836.38
2023-04-20T06:51:44.683Z,94825.50
2023-04-20T06:54:47.361Z,94810.06
2023-04-20T06:57:51.934Z,94825.25
2023-04-20T07:00:56.415Z,94821.41
2023-04-20T07:03:58.696Z,94838.78
2023-04-20T07:07:03.458Z,94828.47
2023-04-20T07:10:12.341Z,94821.81
2023-04-20T07:13:14.598Z,94822.66
2023-04-20T07:16:17.137Z,94819.91
2023-04-20T07:19:19.683Z,94829.34
2023-04-20T07:22:22.948Z,94835.59
2023-04-20T07:25:25.899Z,94824.81
2023-04-20T07:28:30.545Z,94823.59
2023-04-20T07:31:35.202Z,94826.44
2023-04-20T07:34:42.173Z,94801.06
2023-04-20T07:37:44.309Z,94820.69
2023-04-20T07:40:48.919Z,94822.16
2023-04-20T07:43:54.029Z,94840.88
2023-04-20T07:46:57.804Z,94814.69
2023-04-20T07:50:00.126Z,94847.44
2023-04-20T07:53:02.752Z,94845.19
2023-04-20T07:56:05.119Z,94808.78
2023-04-20T07:59:07.172Z,94847.09
2023-04-20T08:02:09.479Z,94840.22
2023-04-20T08:05:11.850Z,94812.13
2023-04-20T08:08:14.051Z,94827.47
2023-04-20T08:11:16.098Z,94830.94
2023-04-20T08:14:18.481Z,94832.09
2023-04-20T08:17:23.081Z,94832.16
2023-04-20T08:20:29.680Z,94824.13
2023-04-20T08:23:34.103Z,94835.13
2023-04-20T08:26:45.799Z,94835.22
2023-04-20T08:29:51.092Z,94821.28
2023-04-20T08:32:56.356Z,94799.13
2023-04-20T08:36:03.606Z,94809.53
2023-04-20T08:39:18.528Z,94824.06
2023-04-20T08:42:21.158Z,94839.97
2023-04-20T08:45:23.271Z,94831.16
2023-04-20T08:48:27.093Z,94828.25
2023-04-20T08:51:29.373Z,94829.53
2023-04-20T08:54:32.538Z,94830.22
2023-04-20T08:57:34.642Z,94817.59
2023-04-20T09:00:46.708Z,94824.03
2023-04-20T09:03:49.542Z,94824.03
2023-04-20T09:06:54.415Z,94799.56
2023-04-20T09:09:58.539Z,94822.63
2023-04-20T09:13:03.252Z,94819.34
2023-04-20T09:16:13.626Z,94802.19
2023-04-20T09:19:24.942Z,94813.28
2023-04-20T09:22:37.004Z,94802.06
2023-04-20T09:25:42.709Z,94823.59
2023-04-20T09:28:47.542Z,94816.41
2023-04-20T09:31:54.453Z,94818.25
2023-04-20T09:34:59.358Z,94802.13
2023-04-20T09:38:01.661Z,94810.34
2023-04-20T09:41:04.411Z,94806.31
2023-04-20T09:44:10.198Z,94820.63
2023-04-20T09:47:18.189Z,94806.41
2023-04-20T09:50:32.103Z,94790.47
2023-04-20T09:53:41.372Z,94813.22
2023-04-20T09:56:43.642Z,94831.09
2023-04-20T09:59:47.568Z,94825.72
2023-04-20T10:03:04.044Z,94828.13
2023-04-20T10:06:26.490Z,94830.47
2023-04-20T10:09:32.378Z,94820.66
2023-04-20T10:12:37.070Z,94813.59
2023-04-20T10:15:41.147Z,94811.03
2023-04-20T10:18:43.246Z,94818.63
2023-04-20T10:21:47.661Z,94825.16
2023-04-20T10:24:49.639Z,94820.19
2023-04-20T10:28:00.193Z,94817.44
2023-04-20T10:31:04.313Z,94823.13
2023-04-20T10:34:10.336Z,94828.06
2023-04-20T10:37:13.987Z,94817.66
2023-04-20T10:40:16.025Z,94809.50
2023-04-20T10:43:22.029Z,94816.34
2023-04-20T10:46:25.068Z,94828.22
2023-04-20T10:49:28.985Z,94818.44
2023-04-20T10:52:38.211Z,94805.59
2023-04-20T10:55:41.476Z,94793.84
2023-04-20T10:58:43.705Z,94788.84
2023-04-20T11:01:46.864Z,94799.91
2023-04-20T11:04:49.253Z,94781.22
2023-04-20T11:07:58.737Z,94790.44
2023-04-20T11:11:00.735Z,94789.38
2023-04-20T11:14:10.555Z,94788.09
2023-04-20T11:17:12.664Z,94795.41
2023-04-20T11:20:17.741Z,94794.44
2023-04-20T11:23:25.429Z,94799.66
2023-04-20T11:26:43.592Z,94791.66
2023-04-20T11:29:58.337Z,94801.00
2023-04-20T11:33:00.620Z,94783.28
2023-04-20T11:36:03.016Z,94806.31
2023-04-20T11:39:09.964Z,94802.88
2023-04-20T11:42:11.994Z,94802.13
2023-04-20T11:45:13.967Z,94795.78
2023-04-20T11:48:16.291Z,94770.63
2023-04-20T11:51:18.395Z,94780.63
2023-04-20T11:54:21.884Z,94766.34
2023-04-20T11:57:25.744Z,94763.66
2023-04-20T12:00:27.852Z,94781.41
2023-04-20T12:03:30.052Z,94786.28
2023-04-20T12:06:32.562Z,94787.78
2023-04-20T12:09:38.861Z,94782.81
2023-04-20T12:12:42.105Z,94793.59
2023-04-20T12:15:44.127Z,94782.41
2023-04-20T12:18:46.515Z,94796.78
2023-04-20T12:21:48.433Z,94793.03
2023-04-20T12:24:50.456Z,94777.59
2023-04-20T12:27:52.338Z,94785.19
2023-04-20T12:30:54.655Z,94777.41
2023-04-20T12:33:56.638Z,94782.31
2023-04-20T12:36:58.596Z,94782.16
2023-04-20T12:40:00.630Z,94778.78
2023-04-20T12:43:02.562Z,94763.41
2023-04-20T12:46:04.505Z,94775.53
2023-04-20T12:49:06.455Z,94779.25
2023-04-20T12:52:08.956Z,94776.09
2023-04-20T12:55:11.257Z,94776.44
2023-04-20T12:58:13.257Z,94765.00
2023-04-20T13:01:15.225Z,94762.56
2023-04-20T13:04:17.625Z,94751.03
2023-04-20T13:07:19.992Z,94760.94
2023-04-20T13:10:21.900Z,94765.00
2023-04-20T13:13:23.847Z,94775.72
2023-04-20T13:16:26.040Z,94768.66
2023-04-20T13:19:30.265Z,94771.97
2023-04-20T13:22:32.220Z,94776.06
2023-04-20T13:25:35.259Z,94779.03
2023-04-20T13:28:37.881Z,94770.97
2023-04-20T13:31:40.725Z,94771.53
2023-04-20T13:34:44.974Z,94767.28
2023-04-20T13:37:46.890Z,94781.84
2023-04-20T13:40:48.887Z,94774.19
2023-04-20T13:43:50.920Z,94768.38
2023-04-20T13:46:52.843Z,94772.97
2023-04-20T13:49:54.764Z,94772.47
2023-04-20T13:52:56.823Z,94775.59
2023-04-20T13:55:59.077Z,94771.00
2023-04-20T13:59:02.914Z,94777.84
2023-04-20T14:02:05.052Z,94768.63
2023-04-20T14:05:07.325Z,94773.34
2023-04-20T14:08:09.142Z,94783.16
2023-04-20T14:11:11.129Z,94776.97
2023-04-20T14:14:13.606Z,94783.06
2023-04-20T14:17:15.735Z,94790.81
2023-04-20T14:20:17.825Z,94779.59
2023-04-20T14:23:19.771Z,94775.28
2023-04-20T14:26:21.709Z,94772.34
2023-04-20T14:29:26.299Z,94780.56
2023-04-20T14:32:31.350Z,94771.44
2023-04-20T14:35:33.422Z,94775.38
2023-04-20T14:38:35.471Z,94758.47
2023-04-20T14:41:37.515Z,94777.44
2023-04-20T14:44:40.705Z,94782.03
2023-04-20T14:47:45.258Z,94778.41
2023-04-20T14:50:47.409Z,94782.53
2023-04-20T14:53:49.320Z,94788.50
2023-04-20T14:56:51.310Z,94794.28
2023-04-20T14:59:53.295Z,94786.22
2023-04-20T15:02:56.918Z,94779.94
2023-04-20T15:06:02.104Z,94784.72
2023-04-20T15:09:04.873Z,94787.19
2023-04-20T15:12:06.815Z,94781.84
2023-04-20T15:15:09.049Z,94782.28
2023-04-20T15:18:10.921Z,94779.19
2023-04-20T15:21:13.061Z,94793.72
2023-04-20T15:24:15.369Z,94796.81
2023-04-20T15:27:17.540Z,94786.97
2023-04-20T15:30:21.032Z,94796.38
2023-04-20T15:33:22.956Z,94795.94
2023-04-20T15:36:25.034Z,94786.13
2023-04-20T15:39:27.154Z,94794.72
2023-04-20T15:42:29.144Z,94791.84
2023-04-20T15:45:31.372Z,94791.22
2023-04-20T15:48:33.482Z,94789.97
2023-04-20T15:51:35.568Z,94794.72
2023-04-20T15:54:38.055Z,94788.38
2023-04-20T15:57:41.296Z,94774.00
2023-04-20T16:00:44.092Z,94793.66
2023-04-20T16:03:46.950Z,94772.53
2023-04-20T16:06:49.322Z,94791.81
2023-04-20T16:09:51.348Z,94781.50
2023-04-20T16:12:54.327Z,94785.59
2023-04-20T16:15:56.462Z,94781.91
2023-04-20T16:18:58.686Z,94778.97
2023-04-20T16:22:00.698Z,94772.63
2023-04-20T16:25:03.308Z,94787.34
2023-04-20T16:28:06.201Z,94770.94
2023-04-20T16:31:08.316Z,94768.44
2023-04-20T16:34:11.019Z,94775.19
2023-04-20T16:37:13.101Z,94774.78
2023-04-20T16:40:15.165Z,94793.78
2023-04-20T16:43:17.353Z,94801.38
2023-04-20T16:46:22.237Z,94804.19
2023-04-20T16:49:24.428Z,94796.41
2023-04-20T16:52:26.456Z,94805.63
2023-04-20T16:55:28.422Z,94793.66
2023-04-20T16:58:30.639Z,94789.34
2023-04-20T17:01:33.120Z,94809.34
2023-04-20T17:04:36.120Z,94792.59
2023-04-20T17:07:38.340Z,94795.00
2023-04-20T17:10:40.720Z,94791.25
2023-04-20T17:13:42.808Z,94796.75
2023-04-20T17:16:44.875Z,94806.53
2023-04-20T17:19:46.901Z,94809.75
2023-04-20T17:22:49.838Z,94799.84
2023-04-20T17:25:52.221Z,94819.31
2023-04-20T17:28:54.268Z,94808.03
2023-04-20T17:31:56.497Z,94802.47
2023-04-20T17:34:58.778Z,94813.34
2023-04-20T17:38:00.833Z,94803.81
2023-04-20T17:41:03.534Z,94824.88
2023-04-20T17:44:05.685Z,94830.19
2023-04-20T17:47:09.566Z,94836.41
2023-04-20T17:50:13.396Z,94827.59
2023-04-20T17:53:15.486Z,94832.25
2023-04-20T17:56:17.507Z,94835.28
2023-04-20T17:59:19.505Z,94828.53
2023-04-20T18:02:23.453Z,94835.47
2023-04-20T18:05:25.414Z,94844.06
2023-04-20T18:08:27.506Z,94835.41
2023-04-20T18:11:29.455Z,94853.31
2023-04-20T18:14:31.891Z,94848.19
2023-04-20T18:17:33.856Z,94852.66
2023-04-20T18:20:36.270Z,94846.84
2023-04-20T18:23:38.436Z,94862.56
2023-04-20T18:26:40.762Z,94840.75
2023-04-20T18:29:42.993Z,94855.00
2023-04-20T18:32:45.436Z,94857.16
2023-04-20T18:35:48.002Z,94842.84
2023-04-20T18:38:51.434Z,94855.94
2023-04-20T18:41:54.071Z,94867.97
2023-04-20T18:44:56.752Z,94853.38
2023-04-20T18:47:58.927Z,94848.00
2023-04-20T18:51:01.903Z,94868.81
2023-04-20T18:54:04.313Z,94873.00
2023-04-20T18:57:07.294Z,94874.13
2023-04-20T19:00:09.884Z,94876.09
2023-04-20T19:03:12.024Z,94862.16
2023-04-20T19:06:14.495Z,94880.75
2023-04-20T19:09:18.411Z,94879.13
2023-04-20T19:12:21.291Z,94883.41
2023-04-20T19:15:25.776Z,94872.19
2023-04-20T19:18:30.649Z,94886.78
2023-04-20T19:21:33.939Z,94885.97
2023-04-20T19:24:36.412Z,94882.28
2023-04-20T19:27:38.567Z,94876.56
2023-04-20T19:30:40.749Z,94877.19
2023-04-20T19:33:43.104Z,94884.38
2023-04-20T19:36:45.346Z,94877.59
2023-04-20T19:39:47.743Z,94883.72
2023-04-20T19:42:50.781Z,94889.84
2023-04-20T19:45:54.282Z,94888.84
2023-04-20T19:48:56.774Z,94879.81
2023-04-20T19:51:59.070Z,94888.66
2023-04-20T19:55:02.934Z,94881.00
2023-04-20T19:58:09.251Z,94883.91
2023-04-20T20:01:22.717Z,94886.91
2023-04-20T20:04:25.203Z,94884.78
2023-04-20T20:07:28.238Z,94878.44
2023-04-20T20:10:30.269Z,94887.53
2023-04-20T20:13:32.468Z,94885.91
2023-04-20T20:16:34.600Z,94881.47
2023-04-20T20:19:36.520Z,94872.84
2023-04-20T20:22:38.728Z,94887.44
2023-04-20T20:25:40.793Z,94881.81
2023-04-20T20:28:43.752Z,94877.50
2023-04-20T20:31:45.735Z,94876.38
2023-04-20T20:34:48.839Z,94878.22
2023-04-20T20:37:50.868Z,94877.66
2023-04-20T20:40:53.617Z,94887.78
2023-04-20T20:43:58.016Z,94880.94
2023-04-20T20:47:00.903Z,94882.94
2023-04-20T20:50:02.981Z,94876.81
2023-04-20T20:53:06.521Z,94888.31
2023-04-20T20:56:08.358Z,94894.75
2023-04-20T20:59:10.235Z,94896.50
2023-04-20T21:02:12.425Z,94894.34
2023-04-20T21:05:14.316Z,94888.75
2023-04-20T21:08:17.364Z,94893.38
2023-04-20T21:11:19.333Z,94901.31
2023-04-20T21:14:21.269Z,94882.50
2023-04-20T21:17:23.097Z,94894.97
2023-04-20T21:20:25.032Z,94891.69
2023-04-20T21:23:26.908Z,94889.44
2023-04-20T21:26:34.865Z,94891.25
2023-04-20T21:29:36.713Z,94893.38
2023-04-20T21:32:38.847Z,94886.56
2023-04-20T21:35:40.862Z,94897.78
2023-04-20T21:38:44.014Z,94890.44
2023-04-20T21:41:45.974Z,94901.50
2023-04-20T21:44:47.827Z,94899.44
2023-04-20T21:47:49.681Z,94895.97
2023-04-20T21:50:51.722Z,94899.16
2023-04-20T21:53:53.650Z,94904.78
2023-04-20T21:56:55.513Z,94887.16
2023-04-20T21:59:57.429Z,94896.09
2023-04-20T22:02:59.549Z,94889.94
2023-04-20T22:06:01.598Z,94896.84
2023-04-20T22:09:04.620Z,94905.41
2023-04-20T22:12:06.672Z,94894.41
2023-04-20T22:15:11.092Z,94897.03
2023-04-20T22:18:13.377Z,94904.47
2023-04-20T22:21:15.324Z,94885.34
2023-04-20T22:24:17.302Z,94900.38
2023-04-20T22:27:19.177Z,94894.16
2023-04-20T22:30:21.673Z,94904.06
2023-04-20T22:33:23.576Z,94903.66
2023-04-20T22:36:25.566Z,94903.50
2023-04-20T22:39:28.197Z,94892.19
2023-04-20T22:42:30.330Z,94884.06
2023-04-20T22:45:32.204Z,94889.97
2023-04-20T22:48:34.031Z,94894.72
2023-04-20T22:51:36.041Z,94897.69
2023-04-20T22:54:38.131Z,94890.00
2023-04-20T22:57:40.092Z,94890.19
2023-04-20T23:00:42.178Z,94893.66
2023-04-20T23:03:44.276Z,94897.13
2023-04-20T23:06:47.230Z,94900.09
2023-04-20T23:09:49.266Z,94894.53
2023-04-20T23:12:54.773Z,94885.66
2023-04-20T23:15:56.901Z,94898.69
2023-04-20T23:18:59.252Z,94908.28
2023-04-20T23:22:02.792Z,94905.50
2023-04-20T23:25:04.904Z,94901.25
2023-04-20T23:28:06.907Z,94890.56
2023-04-20T23:31:08.864Z,94901.44
2023-04-20T23:34:10.764Z,94888.03
2023-04-20T23:37:12.710Z,94883.63
2023-04-20T23:40:15.087Z,94881.81
2023-04-20T23:43:17.282Z,94887.47
2023-04-20T23:46:19.250Z,94887.78
2023-04-20T23:49:21.574Z,94881.19
2023-04-20T23:52:23.649Z,94882.69
2023-04-20T23:55:25.534Z,94881.91
2023-04-20T23:58:28.570Z,94868.41
